sensor_id;sensor_type;location;lat;lon;timestamp;P1;durP1;ratioP1;P2;durP2;ratioP2
64157;SDS011;50449;51.528;5.076;2023-05-10T00:01:20;43.53;;;40.92;;
64157;SDS011;50449;51.528;5.076;2023-05-10T00:03:45;44.40;;;41.70;;
64157;SDS011;50449;51.528;5.076;2023-05-10T00:06:11;44.45;;;41.72;;
64157;SDS011;50449;51.528;5.076;2023-05-10T00:08:37;48.30;;;45.10;;
64157;SDS011;50449;51.528;5.076;2023-05-10T00:11:02;48.58;;;45.50;;
64157;SDS011;50449;51.528;5.076;2023-05-10T00:13:28;46.55;;;43.63;;
64157;SDS011;50449;51.528;5.076;2023-05-10T00:15:53;47.10;;;44.15;;
64157;SDS011;50449;51.528;5.076;2023-05-10T00:18:18;49.40;;;46.40;;
64157;SDS011;50449;51.528;5.076;2023-05-10T00:20:44;45.75;;;42.88;;
64157;SDS011;50449;51.528;5.076;2023-05-10T00:23:11;46.50;;;43.10;;
64157;SDS011;50449;51.528;5.076;2023-05-10T00:25:36;45.92;;;43.13;;
64157;SDS011;50449;51.528;5.076;2023-05-10T00:28:02;46.22;;;43.35;;
64157;SDS011;50449;51.528;5.076;2023-05-10T00:30:27;48.28;;;45.10;;
64157;SDS011;50449;51.528;5.076;2023-05-10T00:32:53;47.95;;;44.58;;
64157;SDS011;50449;51.528;5.076;2023-05-10T00:35:18;45.67;;;42.88;;
64157;SDS011;50449;51.528;5.076;2023-05-10T00:37:44;46.30;;;43.28;;
64157;SDS011;50449;51.528;5.076;2023-05-10T00:40:09;49.70;;;46.50;;
64157;SDS011;50449;51.528;5.076;2023-05-10T00:42:35;47.80;;;44.75;;
64157;SDS011;50449;51.528;5.076;2023-05-10T00:45:01;47.55;;;44.28;;
64157;SDS011;50449;51.528;5.076;2023-05-10T00:47:26;46.30;;;43.45;;
64157;SDS011;50449;51.528;5.076;2023-05-10T00:49:52;47.92;;;44.83;;
64157;SDS011;50449;51.528;5.076;2023-05-10T00:52:18;47.53;;;44.35;;
64157;SDS011;50449;51.528;5.076;2023-05-10T00:54:44;46.28;;;43.20;;
64157;SDS011;50449;51.528;5.076;2023-05-10T00:57:09;48.17;;;44.67;;
64157;SDS011;50449;51.528;5.076;2023-05-10T00:59:35;46.90;;;43.70;;
64157;SDS011;50449;51.528;5.076;2023-05-10T01:02:01;46.10;;;43.10;;
64157;SDS011;50449;51.528;5.076;2023-05-10T01:04:27;44.58;;;41.83;;
64157;SDS011;50449;51.528;5.076;2023-05-10T01:06:53;45.13;;;42.22;;
64157;SDS011;50449;51.528;5.076;2023-05-10T01:09:19;46.50;;;43.35;;
64157;SDS011;50449;51.528;5.076;2023-05-10T01:11:46;47.13;;;43.78;;
64157;SDS011;50449;51.528;5.076;2023-05-10T01:14:12;49.35;;;45.95;;
64157;SDS011;50449;51.528;5.076;2023-05-10T01:16:38;45.70;;;42.50;;
64157;SDS011;50449;51.528;5.076;2023-05-10T01:19:09;49.70;;;45.85;;
64157;SDS011;50449;51.528;5.076;2023-05-10T01:21:43;49.00;;;45.38;;
64157;SDS011;50449;51.528;5.076;2023-05-10T01:24:26;47.42;;;44.05;;
64157;SDS011;50449;51.528;5.076;2023-05-10T01:32:45;51.63;;;47.40;;
64157;SDS011;50449;51.528;5.076;2023-05-10T01:37:59;49.30;;;45.63;;
64157;SDS011;50449;51.528;5.076;2023-05-10T01:40:57;47.78;;;44.25;;
64157;SDS011;50449;51.528;5.076;2023-05-10T01:43:30;48.60;;;45.00;;
64157;SDS011;50449;51.528;5.076;2023-05-10T01:46:09;47.47;;;43.83;;
64157;SDS011;50449;51.528;5.076;2023-05-10T01:48:50;47.22;;;43.78;;
64157;SDS011;50449;51.528;5.076;2023-05-10T01:51:22;44.97;;;41.72;;
64157;SDS011;50449;51.528;5.076;2023-05-10T01:53:51;48.90;;;45.17;;
64157;SDS011;50449;51.528;5.076;2023-05-10T01:56:29;49.50;;;45.63;;
64157;SDS011;50449;51.528;5.076;2023-05-10T02:01:23;46.17;;;42.58;;
64157;SDS011;50449;51.528;5.076;2023-05-10T02:03:51;50.28;;;46.53;;
64157;SDS011;50449;51.528;5.076;2023-05-10T02:06:17;49.85;;;45.58;;
64157;SDS011;50449;51.528;5.076;2023-05-10T02:08:45;47.80;;;43.92;;
64157;SDS011;50449;51.528;5.076;2023-05-10T02:11:12;46.70;;;43.35;;
64157;SDS011;50449;51.528;5.076;2023-05-10T02:13:39;50.60;;;46.30;;
64157;SDS011;50449;51.528;5.076;2023-05-10T02:16:06;49.35;;;45.42;;
64157;SDS011;50449;51.528;5.076;2023-05-10T02:18:32;48.67;;;44.83;;
64157;SDS011;50449;51.528;5.076;2023-05-10T02:20:59;50.95;;;46.97;;
64157;SDS011;50449;51.528;5.076;2023-05-10T02:23:27;50.30;;;46.67;;
64157;SDS011;50449;51.528;5.076;2023-05-10T02:25:54;52.28;;;48.35;;
64157;SDS011;50449;51.528;5.076;2023-05-10T02:28:21;50.45;;;46.70;;
64157;SDS011;50449;51.528;5.076;2023-05-10T02:30:49;49.60;;;45.43;;
64157;SDS011;50449;51.528;5.076;2023-05-10T02:33:16;49.55;;;45.47;;
64157;SDS011;50449;51.528;5.076;2023-05-10T02:35:43;49.63;;;45.83;;
64157;SDS011;50449;51.528;5.076;2023-05-10T02:38:09;51.42;;;47.40;;
64157;SDS011;50449;51.528;5.076;2023-05-10T02:40:36;51.25;;;47.13;;
64157;SDS011;50449;51.528;5.076;2023-05-10T02:43:03;50.58;;;46.63;;
64157;SDS011;50449;51.528;5.076;2023-05-10T02:45:31;50.85;;;47.25;;
64157;SDS011;50449;51.528;5.076;2023-05-10T02:47:58;49.00;;;45.30;;
64157;SDS011;50449;51.528;5.076;2023-05-10T02:50:25;52.35;;;47.97;;
64157;SDS011;50449;51.528;5.076;2023-05-10T02:52:54;51.45;;;47.08;;
64157;SDS011;50449;51.528;5.076;2023-05-10T02:58:00;57.67;;;52.33;;
64157;SDS011;50449;51.528;5.076;2023-05-10T03:00:27;50.30;;;46.45;;
64157;SDS011;50449;51.528;5.076;2023-05-10T03:02:53;51.78;;;47.70;;
64157;SDS011;50449;51.528;5.076;2023-05-10T03:05:19;52.78;;;48.10;;
64157;SDS011;50449;51.528;5.076;2023-05-10T03:07:45;53.08;;;48.75;;
64157;SDS011;50449;51.528;5.076;2023-05-10T03:10:11;52.58;;;48.15;;
64157;SDS011;50449;51.528;5.076;2023-05-10T03:12:43;52.47;;;48.17;;
64157;SDS011;50449;51.528;5.076;2023-05-10T03:18:01;54.25;;;49.75;;
64157;SDS011;50449;51.528;5.076;2023-05-10T03:20:35;51.33;;;47.25;;
64157;SDS011;50449;51.528;5.076;2023-05-10T03:25:46;52.22;;;47.92;;
64157;SDS011;50449;51.528;5.076;2023-05-10T03:28:14;51.15;;;47.08;;
64157;SDS011;50449;51.528;5.076;2023-05-10T03:30:41;50.90;;;46.60;;
64157;SDS011;50449;51.528;5.076;2023-05-10T03:33:08;49.78;;;45.80;;
64157;SDS011;50449;51.528;5.076;2023-05-10T03:35:34;52.30;;;48.22;;
64157;SDS011;50449;51.528;5.076;2023-05-10T03:38:00;50.50;;;46.72;;
64157;SDS011;50449;51.528;5.076;2023-05-10T03:40:26;48.45;;;44.78;;
64157;SDS011;50449;51.528;5.076;2023-05-10T03:42:54;52.83;;;48.28;;
64157;SDS011;50449;51.528;5.076;2023-05-10T03:45:20;48.50;;;44.67;;
64157;SDS011;50449;51.528;5.076;2023-05-10T03:47:45;51.10;;;46.78;;
64157;SDS011;50449;51.528;5.076;2023-05-10T03:50:10;50.20;;;46.10;;
64157;SDS011;50449;51.528;5.076;2023-05-10T03:52:36;47.63;;;44.13;;
64157;SDS011;50449;51.528;5.076;2023-05-10T03:55:04;47.08;;;43.75;;
64157;SDS011;50449;51.528;5.076;2023-05-10T03:57:30;49.40;;;45.58;;
64157;SDS011;50449;51.528;5.076;2023-05-10T03:59:55;49.45;;;45.92;;
64157;SDS011;50449;51.528;5.076;2023-05-10T04:02:20;48.75;;;45.22;;
64157;SDS011;50449;51.528;5.076;2023-05-10T04:04:46;48.22;;;44.42;;
64157;SDS011;50449;51.528;5.076;2023-05-10T04:07:11;48.03;;;44.45;;
64157;SDS011;50449;51.528;5.076;2023-05-10T04:09:37;47.40;;;43.92;;
64157;SDS011;50449;51.528;5.076;2023-05-10T04:12:02;50.25;;;46.45;;
64157;SDS011;50449;51.528;5.076;2023-05-10T04:14:28;48.72;;;45.10;;
64157;SDS011;50449;51.528;5.076;2023-05-10T04:16:53;49.15;;;45.30;;
64157;SDS011;50449;51.528;5.076;2023-05-10T04:19:19;48.60;;;44.75;;
64157;SDS011;50449;51.528;5.076;2023-05-10T04:21:44;47.60;;;43.83;;
64157;SDS011;50449;51.528;5.076;2023-05-10T04:24:10;47.78;;;43.97;;
64157;SDS011;50449;51.528;5.076;2023-05-10T04:26:35;50.15;;;46.25;;
64157;SDS011;50449;51.528;5.076;2023-05-10T04:29:00;47.55;;;43.90;;
64157;SDS011;50449;51.528;5.076;2023-05-10T04:31:26;46.40;;;43.08;;
64157;SDS011;50449;51.528;5.076;2023-05-10T04:33:52;47.10;;;43.90;;
64157;SDS011;50449;51.528;5.076;2023-05-10T04:36:18;48.40;;;44.50;;
64157;SDS011;50449;51.528;5.076;2023-05-10T04:38:43;45.60;;;42.45;;
64157;SDS011;50449;51.528;5.076;2023-05-10T04:41:09;48.50;;;44.88;;
64157;SDS011;50449;51.528;5.076;2023-05-10T04:43:35;49.03;;;45.42;;
64157;SDS011;50449;51.528;5.076;2023-05-10T04:46:01;46.45;;;43.25;;
64157;SDS011;50449;51.528;5.076;2023-05-10T04:48:27;46.53;;;43.22;;
64157;SDS011;50449;51.528;5.076;2023-05-10T04:50:52;46.90;;;43.38;;
64157;SDS011;50449;51.528;5.076;2023-05-10T04:53:18;47.03;;;43.55;;
64157;SDS011;50449;51.528;5.076;2023-05-10T04:55:43;46.83;;;43.33;;
64157;SDS011;50449;51.528;5.076;2023-05-10T04:58:08;48.20;;;44.65;;
64157;SDS011;50449;51.528;5.076;2023-05-10T05:00:34;49.28;;;45.40;;
64157;SDS011;50449;51.528;5.076;2023-05-10T05:03:00;47.05;;;43.53;;
64157;SDS011;50449;51.528;5.076;2023-05-10T05:05:25;44.42;;;41.22;;
64157;SDS011;50449;51.528;5.076;2023-05-10T05:07:51;45.60;;;42.53;;
64157;SDS011;50449;51.528;5.076;2023-05-10T05:10:16;47.22;;;43.67;;
64157;SDS011;50449;51.528;5.076;2023-05-10T05:12:42;47.35;;;44.25;;
64157;SDS011;50449;51.528;5.076;2023-05-10T05:15:07;45.42;;;42.38;;
64157;SDS011;50449;51.528;5.076;2023-05-10T05:17:34;45.78;;;42.50;;
64157;SDS011;50449;51.528;5.076;2023-05-10T05:20:00;47.08;;;43.33;;
64157;SDS011;50449;51.528;5.076;2023-05-10T05:22:25;45.67;;;42.33;;
64157;SDS011;50449;51.528;5.076;2023-05-10T05:24:54;45.42;;;42.13;;
64157;SDS011;50449;51.528;5.076;2023-05-10T05:27:20;45.92;;;42.65;;
64157;SDS011;50449;51.528;5.076;2023-05-10T05:29:52;45.58;;;42.30;;
64157;SDS011;50449;51.528;5.076;2023-05-10T05:32:21;45.55;;;42.13;;
64157;SDS011;50449;51.528;5.076;2023-05-10T05:34:47;46.35;;;43.03;;
64157;SDS011;50449;51.528;5.076;2023-05-10T05:37:14;48.60;;;45.17;;
64157;SDS011;50449;51.528;5.076;2023-05-10T05:39:40;43.88;;;41.33;;
64157;SDS011;50449;51.528;5.076;2023-05-10T05:42:06;47.72;;;44.33;;
64157;SDS011;50449;51.528;5.076;2023-05-10T05:44:31;48.67;;;45.30;;
64157;SDS011;50449;51.528;5.076;2023-05-10T05:46:56;45.50;;;42.30;;
64157;SDS011;50449;51.528;5.076;2023-05-10T05:49:22;49.05;;;45.20;;
64157;SDS011;50449;51.528;5.076;2023-05-10T05:51:47;43.63;;;40.55;;
64157;SDS011;50449;51.528;5.076;2023-05-10T05:54:14;48.05;;;44.45;;
64157;SDS011;50449;51.528;5.076;2023-05-10T05:56:40;46.20;;;42.90;;
64157;SDS011;50449;51.528;5.076;2023-05-10T05:59:05;47.60;;;43.88;;
64157;SDS011;50449;51.528;5.076;2023-05-10T06:01:30;44.95;;;41.95;;
64157;SDS011;50449;51.528;5.076;2023-05-10T06:03:56;43.88;;;40.80;;
64157;SDS011;50449;51.528;5.076;2023-05-10T06:06:21;43.70;;;40.50;;
64157;SDS011;50449;51.528;5.076;2023-05-10T06:08:47;44.65;;;41.35;;
64157;SDS011;50449;51.528;5.076;2023-05-10T06:11:12;40.17;;;37.78;;
64157;SDS011;50449;51.528;5.076;2023-05-10T06:13:38;47.58;;;44.42;;
64157;SDS011;50449;51.528;5.076;2023-05-10T06:16:03;45.53;;;42.28;;
64157;SDS011;50449;51.528;5.076;2023-05-10T06:18:29;44.53;;;41.20;;
64157;SDS011;50449;51.528;5.076;2023-05-10T06:20:54;45.63;;;42.55;;
64157;SDS011;50449;51.528;5.076;2023-05-10T06:23:19;45.17;;;41.95;;
64157;SDS011;50449;51.528;5.076;2023-05-10T06:25:45;45.03;;;41.75;;
64157;SDS011;50449;51.528;5.076;2023-05-10T06:28:10;48.10;;;44.38;;
64157;SDS011;50449;51.528;5.076;2023-05-10T06:30:36;44.67;;;41.40;;
64157;SDS011;50449;51.528;5.076;2023-05-10T06:33:02;61.65;;;56.38;;
64157;SDS011;50449;51.528;5.076;2023-05-10T06:35:27;44.03;;;41.00;;
64157;SDS011;50449;51.528;5.076;2023-05-10T06:37:53;42.53;;;39.90;;
64157;SDS011;50449;51.528;5.076;2023-05-10T06:40:18;47.40;;;44.10;;
64157;SDS011;50449;51.528;5.076;2023-05-10T06:42:44;44.67;;;41.67;;
64157;SDS011;50449;51.528;5.076;2023-05-10T06:45:10;46.47;;;43.10;;
64157;SDS011;50449;51.528;5.076;2023-05-10T06:47:36;47.35;;;44.13;;
64157;SDS011;50449;51.528;5.076;2023-05-10T06:50:01;43.53;;;40.35;;
64157;SDS011;50449;51.528;5.076;2023-05-10T06:52:27;44.38;;;41.25;;
64157;SDS011;50449;51.528;5.076;2023-05-10T06:54:52;44.55;;;41.67;;
64157;SDS011;50449;51.528;5.076;2023-05-10T06:57:17;41.45;;;38.65;;
64157;SDS011;50449;51.528;5.076;2023-05-10T06:59:43;46.15;;;43.08;;
64157;SDS011;50449;51.528;5.076;2023-05-10T07:02:08;44.33;;;41.22;;
64157;SDS011;50449;51.528;5.076;2023-05-10T07:04:34;42.40;;;39.60;;
64157;SDS011;50449;51.528;5.076;2023-05-10T07:06:59;44.63;;;41.33;;
64157;SDS011;50449;51.528;5.076;2023-05-10T07:09:25;42.83;;;40.10;;
64157;SDS011;50449;51.528;5.076;2023-05-10T07:11:50;43.50;;;40.80;;
64157;SDS011;50449;51.528;5.076;2023-05-10T07:14:15;43.13;;;40.28;;
64157;SDS011;50449;51.528;5.076;2023-05-10T07:16:41;39.72;;;37.58;;
64157;SDS011;50449;51.528;5.076;2023-05-10T07:19:06;39.58;;;37.42;;
64157;SDS011;50449;51.528;5.076;2023-05-10T07:21:32;42.63;;;40.03;;
64157;SDS011;50449;51.528;5.076;2023-05-10T07:23:57;44.55;;;41.45;;
64157;SDS011;50449;51.528;5.076;2023-05-10T07:26:23;43.20;;;40.75;;
64157;SDS011;50449;51.528;5.076;2023-05-10T07:28:49;44.25;;;41.20;;
64157;SDS011;50449;51.528;5.076;2023-05-10T07:31:14;41.65;;;39.30;;
64157;SDS011;50449;51.528;5.076;2023-05-10T07:33:40;43.70;;;40.88;;
64157;SDS011;50449;51.528;5.076;2023-05-10T07:36:05;41.30;;;38.97;;
64157;SDS011;50449;51.528;5.076;2023-05-10T07:38:31;39.10;;;36.85;;
64157;SDS011;50449;51.528;5.076;2023-05-10T07:40:56;41.35;;;38.58;;
64157;SDS011;50449;51.528;5.076;2023-05-10T07:43:22;42.08;;;39.10;;
64157;SDS011;50449;51.528;5.076;2023-05-10T07:45:47;42.90;;;40.33;;
64157;SDS011;50449;51.528;5.076;2023-05-10T07:48:12;43.30;;;40.20;;
64157;SDS011;50449;51.528;5.076;2023-05-10T07:50:38;41.97;;;39.58;;
64157;SDS011;50449;51.528;5.076;2023-05-10T07:53:03;40.33;;;37.75;;
64157;SDS011;50449;51.528;5.076;2023-05-10T07:55:28;41.95;;;39.55;;
64157;SDS011;50449;51.528;5.076;2023-05-10T07:57:54;42.10;;;39.60;;
64157;SDS011;50449;51.528;5.076;2023-05-10T08:00:20;42.58;;;40.08;;
64157;SDS011;50449;51.528;5.076;2023-05-10T08:02:45;40.63;;;38.42;;
64157;SDS011;50449;51.528;5.076;2023-05-10T08:05:12;39.70;;;37.20;;
64157;SDS011;50449;51.528;5.076;2023-05-10T08:07:38;41.50;;;38.97;;
64157;SDS011;50449;51.528;5.076;2023-05-10T08:10:04;40.63;;;38.28;;
64157;SDS011;50449;51.528;5.076;2023-05-10T08:12:30;41.42;;;39.15;;
64157;SDS011;50449;51.528;5.076;2023-05-10T08:14:55;39.63;;;37.45;;
64157;SDS011;50449;51.528;5.076;2023-05-10T08:17:21;43.55;;;41.10;;
64157;SDS011;50449;51.528;5.076;2023-05-10T08:19:46;42.95;;;40.45;;
64157;SDS011;50449;51.528;5.076;2023-05-10T08:22:12;42.95;;;40.30;;
64157;SDS011;50449;51.528;5.076;2023-05-10T08:24:37;43.00;;;40.40;;
64157;SDS011;50449;51.528;5.076;2023-05-10T08:27:07;40.03;;;38.03;;
64157;SDS011;50449;51.528;5.076;2023-05-10T08:29:33;43.88;;;41.30;;
64157;SDS011;50449;51.528;5.076;2023-05-10T08:31:59;42.67;;;40.28;;
64157;SDS011;50449;51.528;5.076;2023-05-10T08:34:25;44.10;;;41.38;;
64157;SDS011;50449;51.528;5.076;2023-05-10T08:36:51;43.67;;;41.28;;
64157;SDS011;50449;51.528;5.076;2023-05-10T08:39:17;42.90;;;40.38;;
64157;SDS011;50449;51.528;5.076;2023-05-10T08:41:43;41.95;;;39.65;;
64157;SDS011;50449;51.528;5.076;2023-05-10T08:44:10;43.17;;;40.85;;
64157;SDS011;50449;51.528;5.076;2023-05-10T08:46:35;41.92;;;39.65;;
64157;SDS011;50449;51.528;5.076;2023-05-10T08:49:04;40.42;;;38.45;;
64157;SDS011;50449;51.528;5.076;2023-05-10T08:51:34;41.83;;;39.63;;
64157;SDS011;50449;51.528;5.076;2023-05-10T08:54:02;42.67;;;40.33;;
64157;SDS011;50449;51.528;5.076;2023-05-10T08:56:29;41.60;;;39.50;;
64157;SDS011;50449;51.528;5.076;2023-05-10T08:58:54;42.85;;;40.53;;
64157;SDS011;50449;51.528;5.076;2023-05-10T09:01:22;44.17;;;41.63;;
64157;SDS011;50449;51.528;5.076;2023-05-10T09:03:49;42.15;;;39.75;;
64157;SDS011;50449;51.528;5.076;2023-05-10T09:06:15;45.42;;;43.05;;
64157;SDS011;50449;51.528;5.076;2023-05-10T09:08:41;45.35;;;42.72;;
64157;SDS011;50449;51.528;5.076;2023-05-10T09:11:09;43.05;;;40.80;;
64157;SDS011;50449;51.528;5.076;2023-05-10T09:13:35;42.25;;;40.00;;
64157;SDS011;50449;51.528;5.076;2023-05-10T09:16:02;42.95;;;40.75;;
64157;SDS011;50449;51.528;5.076;2023-05-10T09:18:28;45.47;;;42.88;;
64157;SDS011;50449;51.528;5.076;2023-05-10T09:20:54;45.78;;;43.17;;
64157;SDS011;50449;51.528;5.076;2023-05-10T09:23:19;46.20;;;43.63;;
64157;SDS011;50449;51.528;5.076;2023-05-10T09:25:45;45.30;;;43.00;;
64157;SDS011;50449;51.528;5.076;2023-05-10T09:28:11;44.47;;;42.15;;
64157;SDS011;50449;51.528;5.076;2023-05-10T09:30:37;45.05;;;42.65;;
64157;SDS011;50449;51.528;5.076;2023-05-10T09:33:02;45.28;;;42.78;;
64157;SDS011;50449;51.528;5.076;2023-05-10T09:35:29;45.67;;;43.38;;
64157;SDS011;50449;51.528;5.076;2023-05-10T09:37:57;45.65;;;43.10;;
64157;SDS011;50449;51.528;5.076;2023-05-10T09:40:25;45.30;;;43.08;;
64157;SDS011;50449;51.528;5.076;2023-05-10T09:45:28;47.30;;;44.65;;
64157;SDS011;50449;51.528;5.076;2023-05-10T09:47:59;47.60;;;44.90;;
64157;SDS011;50449;51.528;5.076;2023-05-10T09:50:25;46.45;;;43.88;;
64157;SDS011;50449;51.528;5.076;2023-05-10T09:52:55;46.83;;;44.30;;
64157;SDS011;50449;51.528;5.076;2023-05-10T09:58:03;48.03;;;45.42;;
64157;SDS011;50449;51.528;5.076;2023-05-10T10:00:35;48.93;;;46.03;;
64157;SDS011;50449;51.528;5.076;2023-05-10T10:03:02;46.90;;;44.28;;
64157;SDS011;50449;51.528;5.076;2023-05-10T10:05:31;47.60;;;44.90;;
64157;SDS011;50449;51.528;5.076;2023-05-10T10:08:00;48.28;;;45.25;;
64157;SDS011;50449;51.528;5.076;2023-05-10T10:10:28;50.35;;;47.53;;
64157;SDS011;50449;51.528;5.076;2023-05-10T10:12:54;46.65;;;44.25;;
64157;SDS011;50449;51.528;5.076;2023-05-10T10:15:20;47.65;;;45.13;;
64157;SDS011;50449;51.528;5.076;2023-05-10T10:17:46;50.20;;;47.60;;
64157;SDS011;50449;51.528;5.076;2023-05-10T10:20:14;47.85;;;45.25;;
64157;SDS011;50449;51.528;5.076;2023-05-10T10:22:40;48.80;;;46.20;;
64157;SDS011;50449;51.528;5.076;2023-05-10T10:25:06;49.22;;;46.63;;
64157;SDS011;50449;51.528;5.076;2023-05-10T10:27:52;48.70;;;46.10;;
64157;SDS011;50449;51.528;5.076;2023-05-10T10:30:30;49.03;;;46.42;;
64157;SDS011;50449;51.528;5.076;2023-05-10T10:35:28;47.53;;;45.08;;
64157;SDS011;50449;51.528;5.076;2023-05-10T10:40:32;48.70;;;46.10;;
64157;SDS011;50449;51.528;5.076;2023-05-10T10:43:20;49.65;;;46.80;;
64157;SDS011;50449;51.528;5.076;2023-05-10T10:48:36;48.35;;;45.67;;
64157;SDS011;50449;51.528;5.076;2023-05-10T10:51:02;50.42;;;47.47;;
64157;SDS011;50449;51.528;5.076;2023-05-10T10:53:28;52.13;;;49.03;;
64157;SDS011;50449;51.528;5.076;2023-05-10T10:56:12;49.40;;;46.60;;
64157;SDS011;50449;51.528;5.076;2023-05-10T10:58:40;49.03;;;46.13;;
64157;SDS011;50449;51.528;5.076;2023-05-10T11:01:12;49.65;;;46.95;;
64157;SDS011;50449;51.528;5.076;2023-05-10T11:03:40;50.53;;;47.65;;
64157;SDS011;50449;51.528;5.076;2023-05-10T11:06:06;50.05;;;47.42;;
64157;SDS011;50449;51.528;5.076;2023-05-10T11:08:34;49.05;;;46.38;;
64157;SDS011;50449;51.528;5.076;2023-05-10T11:11:07;51.15;;;48.35;;
64157;SDS011;50449;51.528;5.076;2023-05-10T11:16:12;48.47;;;45.97;;
64157;SDS011;50449;51.528;5.076;2023-05-10T11:18:38;50.53;;;47.72;;
64157;SDS011;50449;51.528;5.076;2023-05-10T11:21:04;47.72;;;45.17;;
64157;SDS011;50449;51.528;5.076;2023-05-10T11:26:12;50.63;;;47.83;;
64157;SDS011;50449;51.528;5.076;2023-05-10T11:28:42;51.30;;;48.60;;
64157;SDS011;50449;51.528;5.076;2023-05-10T11:31:08;50.05;;;47.45;;
64157;SDS011;50449;51.528;5.076;2023-05-10T11:33:46;50.13;;;47.50;;
64157;SDS011;50449;51.528;5.076;2023-05-10T11:36:15;49.05;;;46.40;;
64157;SDS011;50449;51.528;5.076;2023-05-10T11:38:45;49.22;;;46.63;;
64157;SDS011;50449;51.528;5.076;2023-05-10T11:41:11;48.20;;;45.80;;
64157;SDS011;50449;51.528;5.076;2023-05-10T11:43:40;50.35;;;47.75;;
64157;SDS011;50449;51.528;5.076;2023-05-10T11:46:07;47.30;;;44.92;;
64157;SDS011;50449;51.528;5.076;2023-05-10T11:48:34;48.33;;;45.88;;
64157;SDS011;50449;51.528;5.076;2023-05-10T11:51:00;49.70;;;47.20;;
64157;SDS011;50449;51.528;5.076;2023-05-10T11:53:27;49.00;;;46.50;;
64157;SDS011;50449;51.528;5.076;2023-05-10T11:55:54;50.20;;;47.45;;
64157;SDS011;50449;51.528;5.076;2023-05-10T11:58:19;50.42;;;47.85;;
64157;SDS011;50449;51.528;5.076;2023-05-10T12:00:46;49.80;;;47.20;;
64157;SDS011;50449;51.528;5.076;2023-05-10T12:03:12;48.15;;;45.85;;
64157;SDS011;50449;51.528;5.076;2023-05-10T12:05:38;50.20;;;47.63;;
64157;SDS011;50449;51.528;5.076;2023-05-10T12:08:15;50.25;;;47.65;;
64157;SDS011;50449;51.528;5.076;2023-05-10T12:10:45;50.63;;;47.72;;
64157;SDS011;50449;51.528;5.076;2023-05-10T12:13:11;49.22;;;46.78;;
64157;SDS011;50449;51.528;5.076;2023-05-10T12:15:38;53.50;;;50.67;;
64157;SDS011;50449;51.528;5.076;2023-05-10T12:18:03;53.45;;;50.50;;
64157;SDS011;50449;51.528;5.076;2023-05-10T12:20:30;50.10;;;47.40;;
64157;SDS011;50449;51.528;5.076;2023-05-10T12:22:57;48.95;;;46.55;;
64157;SDS011;50449;51.528;5.076;2023-05-10T12:25:24;49.60;;;47.05;;
64157;SDS011;50449;51.528;5.076;2023-05-10T12:27:56;52.20;;;49.40;;
64157;SDS011;50449;51.528;5.076;2023-05-10T12:30:26;48.55;;;46.15;;
64157;SDS011;50449;51.528;5.076;2023-05-10T12:32:53;49.28;;;46.58;;
64157;SDS011;50449;51.528;5.076;2023-05-10T12:35:25;49.65;;;47.13;;
64157;SDS011;50449;51.528;5.076;2023-05-10T12:37:51;49.75;;;47.15;;
64157;SDS011;50449;51.528;5.076;2023-05-10T12:40:16;48.78;;;46.35;;
64157;SDS011;50449;51.528;5.076;2023-05-10T12:42:42;49.88;;;47.38;;
64157;SDS011;50449;51.528;5.076;2023-05-10T12:45:10;48.33;;;45.92;;
64157;SDS011;50449;51.528;5.076;2023-05-10T12:47:35;49.47;;;46.97;;
64157;SDS011;50449;51.528;5.076;2023-05-10T12:50:02;52.58;;;49.55;;
64157;SDS011;50449;51.528;5.076;2023-05-10T12:52:28;48.15;;;45.80;;
64157;SDS011;50449;51.528;5.076;2023-05-10T12:54:53;54.55;;;51.92;;
64157;SDS011;50449;51.528;5.076;2023-05-10T12:57:21;51.38;;;48.80;;
64157;SDS011;50449;51.528;5.076;2023-05-10T12:59:47;50.67;;;48.17;;
64157;SDS011;50449;51.528;5.076;2023-05-10T13:02:13;51.40;;;48.80;;
64157;SDS011;50449;51.528;5.076;2023-05-10T13:04:39;51.33;;;48.72;;
64157;SDS011;50449;51.528;5.076;2023-05-10T13:07:08;50.40;;;47.75;;
64157;SDS011;50449;51.528;5.076;2023-05-10T13:09:34;50.92;;;48.25;;
64157;SDS011;50449;51.528;5.076;2023-05-10T13:12:00;49.63;;;47.13;;
64157;SDS011;50449;51.528;5.076;2023-05-10T13:14:26;51.22;;;48.72;;
64157;SDS011;50449;51.528;5.076;2023-05-10T13:16:51;53.15;;;50.25;;
64157;SDS011;50449;51.528;5.076;2023-05-10T13:19:17;50.63;;;47.97;;
64157;SDS011;50449;51.528;5.076;2023-05-10T13:21:43;51.22;;;48.65;;
64157;SDS011;50449;51.528;5.076;2023-05-10T13:26:39;50.30;;;47.60;;
64157;SDS011;50449;51.528;5.076;2023-05-10T13:29:05;53.40;;;50.60;;
64157;SDS011;50449;51.528;5.076;2023-05-10T13:31:31;50.60;;;47.90;;
64157;SDS011;50449;51.528;5.076;2023-05-10T13:33:56;51.85;;;49.25;;
64157;SDS011;50449;51.528;5.076;2023-05-10T13:36:22;51.67;;;49.05;;
64157;SDS011;50449;51.528;5.076;2023-05-10T13:38:48;52.50;;;49.45;;
64157;SDS011;50449;51.528;5.076;2023-05-10T13:41:13;52.45;;;49.80;;
64157;SDS011;50449;51.528;5.076;2023-05-10T13:43:39;54.10;;;51.40;;
64157;SDS011;50449;51.528;5.076;2023-05-10T13:46:04;50.58;;;48.03;;
64157;SDS011;50449;51.528;5.076;2023-05-10T13:48:29;53.60;;;50.42;;
64157;SDS011;50449;51.528;5.076;2023-05-10T13:50:55;54.75;;;51.95;;
64157;SDS011;50449;51.528;5.076;2023-05-10T13:53:21;54.78;;;51.50;;
64157;SDS011;50449;51.528;5.076;2023-05-10T13:55:46;53.30;;;50.50;;
64157;SDS011;50449;51.528;5.076;2023-05-10T13:58:12;54.13;;;51.45;;
64157;SDS011;50449;51.528;5.076;2023-05-10T14:00:37;54.22;;;51.13;;
64157;SDS011;50449;51.528;5.076;2023-05-10T14:03:03;56.65;;;53.63;;
64157;SDS011;50449;51.528;5.076;2023-05-10T14:05:29;52.15;;;49.45;;
64157;SDS011;50449;51.528;5.076;2023-05-10T14:07:55;53.83;;;50.95;;
64157;SDS011;50449;51.528;5.076;2023-05-10T14:10:21;54.90;;;52.00;;
64157;SDS011;50449;51.528;5.076;2023-05-10T14:12:46;55.15;;;52.30;;
64157;SDS011;50449;51.528;5.076;2023-05-10T14:15:11;55.10;;;52.33;;
64157;SDS011;50449;51.528;5.076;2023-05-10T14:17:37;52.15;;;49.45;;
64157;SDS011;50449;51.528;5.076;2023-05-10T14:20:04;52.72;;;49.92;;
64157;SDS011;50449;51.528;5.076;2023-05-10T14:22:29;53.63;;;50.55;;
64157;SDS011;50449;51.528;5.076;2023-05-10T14:24:55;55.80;;;52.70;;
64157;SDS011;50449;51.528;5.076;2023-05-10T14:27:20;51.42;;;48.33;;
64157;SDS011;50449;51.528;5.076;2023-05-10T14:29:46;52.65;;;50.05;;
64157;SDS011;50449;51.528;5.076;2023-05-10T14:32:12;54.45;;;51.20;;
64157;SDS011;50449;51.528;5.076;2023-05-10T14:34:38;54.55;;;51.72;;
64157;SDS011;50449;51.528;5.076;2023-05-10T14:37:03;54.42;;;51.58;;
64157;SDS011;50449;51.528;5.076;2023-05-10T14:39:29;52.85;;;50.05;;
64157;SDS011;50449;51.528;5.076;2023-05-10T14:41:55;54.53;;;51.53;;
64157;SDS011;50449;51.528;5.076;2023-05-10T14:44:20;53.83;;;51.03;;
64157;SDS011;50449;51.528;5.076;2023-05-10T14:46:46;54.67;;;51.88;;
64157;SDS011;50449;51.528;5.076;2023-05-10T14:49:13;53.95;;;51.05;;
64157;SDS011;50449;51.528;5.076;2023-05-10T14:51:38;53.92;;;51.13;;
64157;SDS011;50449;51.528;5.076;2023-05-10T14:54:04;54.42;;;51.63;;
64157;SDS011;50449;51.528;5.076;2023-05-10T14:56:29;54.58;;;51.72;;
64157;SDS011;50449;51.528;5.076;2023-05-10T14:58:55;55.15;;;52.35;;